Time,TemperatureF,DewpointF,PressureIn,WindDirection,WindDirectionDegrees,WindSpeedMPH,WindSpeedGustMPH,Humidity,HourlyPrecipIn,Conditions,Clouds,dailyrainin,SoftwareType,DateUTC
2013-07-19 00:08:00,78.8,69.0,29.80,SW,225,2.7,-999.0,72,-99.99,,,0.00,Acu-Link.com,2013-07-19 04:08:00,
2013-07-19 00:23:00,78.8,69.0,29.80,SW,225,0.0,-999.0,72,-99.99,,,0.00,Acu-Link.com,2013-07-19 04:23:00,
2013-07-19 01:00:00,78.6,69.2,29.80,SW,225,0.0,-999.0,73,-99.99,,,0.00,Acu-Link.com,2013-07-19 05:00:00,
2013-07-19 01:40:00,78.8,69.8,29.79,West,270,0.0,-999.0,74,-99.99,,,0.00,Acu-Link.com,2013-07-19 05:40:00,
2013-07-19 02:23:00,78.6,69.6,29.77,West,270,2.2,-999.0,74,-99.99,,,0.00,Acu-Link.com,2013-07-19 06:23:00,
2013-07-19 02:44:00,78.4,69.8,29.77,South,180,2.7,-999.0,75,-99.99,,,0.00,Acu-Link.com,2013-07-19 06:44:00,
2013-07-19 03:01:00,78.4,69.8,29.76,SSW,202,3.2,-999.0,75,-99.99,,,0.00,Acu-Link.com,2013-07-19 07:01:00,
2013-07-19 03:18:00,78.1,69.9,29.76,West,270,1.1,-999.0,76,-99.99,,,0.00,Acu-Link.com,2013-07-19 07:18:00,
2013-07-19 03:39:00,78.1,69.9,29.76,WSW,247,0.0,-999.0,76,-99.99,,,0.00,Acu-Link.com,2013-07-19 07:39:00,
2013-07-19 03:56:00,77.0,69.6,29.74,WSW,247,1.1,-999.0,78,-99.99,,,0.00,Acu-Link.com,2013-07-19 07:56:00,
2013-07-19 04:35:00,76.3,69.7,29.73,West,270,3.2,-999.0,80,-99.99,,,0.00,Acu-Link.com,2013-07-19 08:35:00,
2013-07-19 04:55:00,76.1,69.5,29.73,West,270,1.1,-999.0,80,-99.99,,,0.00,Acu-Link.com,2013-07-19 08:55:00,
2013-07-19 05:31:00,76.1,69.5,29.73,SE,135,2.2,-999.0,80,-99.99,,,0.00,Acu-Link.com,2013-07-19 09:31:00,
2013-07-19 05:48:00,75.9,69.6,29.72,SE,135,1.7,-999.0,81,-99.99,,,0.00,Acu-Link.com,2013-07-19 09:48:00,
2013-07-19 06:05:00,75.7,69.4,29.72,West,270,0.0,-999.0,81,-99.99,,,0.00,Acu-Link.com,2013-07-19 10:05:00,
2013-07-19 06:25:00,75.6,69.7,29.73,West,270,2.2,-999.0,82,-99.99,,,0.00,Acu-Link.com,2013-07-19 10:25:00,
2013-07-19 07:00:00,75.6,69.7,29.73,South,180,1.1,-999.0,82,-99.99,,,0.00,Acu-Link.com,2013-07-19 11:00:00,
2013-07-19 07:25:00,75.6,69.7,29.73,SSW,202,3.2,-999.0,82,-99.99,,,0.00,Acu-Link.com,2013-07-19 11:25:00,
2013-07-19 07:45:00,77.4,70.7,29.72,SW,225,2.7,-999.0,80,-99.99,,,0.00,Acu-Link.com,2013-07-19 11:45:00,
2013-07-19 08:05:00,78.6,70.8,29.72,WSW,247,4.2,-999.0,77,-99.99,,,0.00,Acu-Link.com,2013-07-19 12:05:00,
2013-07-19 08:28:00,79.5,70.9,29.72,WSW,247,4.7,-999.0,75,-99.99,,,0.00,Acu-Link.com,2013-07-19 12:28:00,
2013-07-19 08:51:00,80.6,71.1,29.72,North,0,5.8,-999.0,73,-99.99,,,0.00,Acu-Link.com,2013-07-19 12:51:00,
2013-07-19 09:13:00,81.5,71.6,29.72,SW,225,3.2,-999.0,72,-99.99,,,0.00,Acu-Link.com,2013-07-19 13:13:00,
2013-07-19 09:32:00,81.5,71.6,29.72,West,270,2.7,-999.0,72,-99.99,,,0.00,Acu-Link.com,2013-07-19 13:32:00,
2013-07-19 09:50:00,81.5,71.6,29.72,SW,225,2.2,-999.0,72,-99.99,,,0.00,Acu-Link.com,2013-07-19 13:50:00,
2013-07-19 10:13:00,85.6,72.0,29.72,SW,225,2.7,-999.0,64,-99.99,,,0.00,Acu-Link.com,2013-07-19 14:13:00,
2013-07-19 10:33:00,85.6,72.0,29.72,West,270,3.7,-999.0,64,-99.99,,,0.00,Acu-Link.com,2013-07-19 14:33:00,
2013-07-19 10:50:00,87.1,72.5,29.70,West,270,4.7,-999.0,62,-99.99,,,0.00,Acu-Link.com,2013-07-19 14:50:00,
2013-07-19 11:06:00,87.1,72.5,29.70,West,270,3.7,-999.0,62,-99.99,,,0.00,Acu-Link.com,2013-07-19 15:06:00,
2013-07-19 11:25:00,87.6,72.0,29.69,SSW,202,5.8,-999.0,60,-99.99,,,0.00,Acu-Link.com,2013-07-19 15:25:00,
2013-07-19 11:48:00,89.1,71.8,29.69,SW,225,5.3,-999.0,57,-99.99,,,0.00,Acu-Link.com,2013-07-19 15:48:00,
2013-07-19 12:04:00,89.6,70.7,29.68,NW,315,4.7,-999.0,54,-99.99,,,0.00,Acu-Link.com,2013-07-19 16:04:00,
2013-07-19 12:29:00,89.6,70.7,29.68,West,270,4.7,-999.0,54,-99.99,,,0.00,Acu-Link.com,2013-07-19 16:29:00,
2013-07-19 13:27:00,90.9,71.4,29.66,West,270,4.7,-999.0,53,-99.99,,,0.00,Acu-Link.com,2013-07-19 17:27:00,
2013-07-19 14:38:00,90.7,71.2,29.63,West,270,4.7,-999.0,53,-99.99,,,0.00,Acu-Link.com,2013-07-19 18:38:00,
2013-07-19 14:55:00,91.9,71.1,29.63,WNW,292,3.2,-999.0,51,-99.99,,,0.00,Acu-Link.com,2013-07-19 18:55:00,
2013-07-19 15:19:00,91.6,70.9,29.61,WSW,247,3.2,-999.0,51,-99.99,,,0.00,Acu-Link.com,2013-07-19 19:19:00,
2013-07-19 15:54:00,91.0,70.9,29.60,WSW,247,3.7,-999.0,52,-99.99,,,0.00,Acu-Link.com,2013-07-19 19:54:00,
2013-07-19 16:21:00,91.6,70.9,29.60,SSW,202,6.3,-999.0,51,-99.99,,,0.00,Acu-Link.com,2013-07-19 20:21:00,
2013-07-19 16:48:00,91.6,71.4,29.59,West,270,2.2,-999.0,52,-99.99,,,0.00,Acu-Link.com,2013-07-19 20:48:00,
2013-07-19 17:08:00,91.9,70.6,29.59,West,270,4.7,-999.0,50,-99.99,,,0.00,Acu-Link.com,2013-07-19 21:08:00,